Canyonlands National Park, UT

11:11 PM MDT on August 23, 2016 (GMT -0600)
Moab | | Change Station

Elev 4239 ft 38.55 °N, 109.52 °W | Updated 6 minutes ago

Clear
Clear
67.9 °F
Feels Like 67.9 °F
N
0.0
Wind Variable Wind from East
Gusts 5.0 mph

Today
High -- | Low -- °F
--% Chance of Precip.
Yesterday
High -- | Low -- °F
Precip. -- in
Pressure 29.99 in
Visibility 10.0 miles
Clouds Clear
Dew Point 52 °F
Humidity 57%
Rainfall 0.01 in
Snow Depth Not available.
6:39 AM 8:00 PM
Waning Gibbous, 61% visible
METAR KCNY 240453Z AUTO 09007KT 10SM CLR 18/13 A3013 RMK AO2 SLP156 T01830133
Pressure 29.99 in
Visibility 10.0 miles
Clouds Clear
Dew Point 52 °F
Humidity 57%
Rainfall 0.01 in
Snow Depth Not available.
6:39 AM 8:00 PM
Waning Gibbous, 61% visible
METAR KCNY 240453Z AUTO 09007KT 10SM CLR 18/13 A3013 RMK AO2 SLP156 T01830133

10-Day Weather Forecast

Almanac

Astronomy

Aug. 23, 2016 Rise Set
Actual Time
Civil Twilight
Nautical Twilight
Astronomical Twilight
Moon
Length of Visible Light
Length of Day
Tomorrow will be .
, % of the Moon is Illuminated

Today's Extremes

State Highs State Lows

Community

WunderPhotos

Upload Photos

1,934,554 photos uploaded!

WunderBlog® & News

Nearby

Air Quality

  Air Quality AQ Index Pollutant
Not available.

Snow Depth

Station Depth Elevation

Earthquake Activity

City Distance Mag. Time & Date
Minimum magnitude displayed is 2.5.

Coastal Water Temperatures

Place Temperature

Stations

Nearby Weather Stations

Station Location Temp. Windchill Dew Point Humidity Wind Precip. Elev Updated Type
                   

Watches & Warnings

There are currently no watches in effect.